Grindstone, Texas
Current Conditions -  °F | °C
As of 1:53 AM on Saturday 01 Nov 2014 (Local Time) from KCRS Reporting Station
Clear Clear  
Wind Chill: 43°   Ceiling: Unl
Heat Index: 46°   Visibility: 10mi
Dew Point: 37°   Wind: 6mph
Humidity: 71%   Direction: 30°NNE
Pressure: 30.36"   Gusts: NA
Location:  31.8162°N, 96.1239°W
Report Text: KCRS 010653Z AUTO 03005KT 10SM CLR 08/03 A3036 RMK AO2 SLP280 T00780028
Loading
Personal Weather Stations






























Interactive Weather Map
Tropical Storm Tracking
New forecast layout! Learn more

10-Day Weather Forecast

Advertisements
Track Severe Weather on mobile